createdAt,value
2019-03-15T00:00:44.529Z,12.07
2019-03-15T00:03:13.690Z,9.20
2019-03-15T00:05:43.365Z,10.90
2019-03-15T00:08:12.790Z,13.40
2019-03-15T00:10:41.977Z,10.37
2019-03-15T00:13:12.458Z,11.37
2019-03-15T00:15:41.791Z,8.33
2019-03-15T00:18:10.955Z,11.73
2019-03-15T00:20:40.462Z,7.33
2019-03-15T00:23:09.666Z,11.00
2019-03-15T00:25:39.526Z,11.10
2019-03-15T00:28:09.393Z,9.27
2019-03-15T00:30:38.557Z,9.87
2019-03-15T00:33:08.104Z,13.30
2019-03-15T00:35:37.260Z,13.87
2019-03-15T00:38:06.792Z,14.87
2019-03-15T00:40:35.974Z,14.17
2019-03-15T00:43:05.730Z,10.73
2019-03-15T00:45:35.178Z,13.30
2019-03-15T00:48:05.033Z,14.27
2019-03-15T00:50:34.574Z,14.17
2019-03-15T00:53:04.058Z,11.40
2019-03-15T00:55:33.362Z,10.83
2019-03-15T00:58:03.820Z,12.63
2019-03-15T01:00:33.434Z,11.20
2019-03-15T01:03:02.771Z,11.17
2019-03-15T01:05:32.187Z,14.70
2019-03-15T01:08:01.391Z,14.83
2019-03-15T01:10:31.393Z,13.60
2019-03-15T01:13:01.352Z,19.47
2019-03-15T01:15:30.856Z,11.77
2019-03-15T01:18:00.044Z,14.87
2019-03-15T01:20:29.977Z,16.17
2019-03-15T01:22:59.189Z,13.57
2019-03-15T01:25:28.344Z,11.33
2019-03-15T01:27:58.127Z,14.90
2019-03-15T01:30:27.501Z,14.60
2019-03-15T01:32:56.988Z,15.87
2019-03-15T01:35:26.148Z,11.47
2019-03-15T01:37:55.348Z,12.23
2019-03-15T01:40:24.519Z,16.70
2019-03-15T01:42:53.728Z,15.23
2019-03-15T01:45:22.919Z,13.77
2019-03-15T01:47:52.386Z,14.13
2019-03-15T01:50:21.858Z,15.40
2019-03-15T01:52:51.013Z,17.37
2019-03-15T01:55:20.469Z,13.77
2019-03-15T01:57:49.639Z,17.70
2019-03-15T02:00:19.121Z,14.90
2019-03-15T02:02:48.583Z,13.07
2019-03-15T02:05:18.180Z,11.20
2019-03-15T02:07:47.359Z,16.90
2019-03-15T02:10:16.544Z,14.93
2019-03-15T02:12:45.814Z,12.67
2019-03-15T02:15:15.017Z,11.83
2019-03-15T02:17:44.434Z,15.57
2019-03-15T02:20:13.743Z,13.57
2019-03-15T02:22:42.889Z,14.53
2019-03-15T02:25:12.085Z,14.07
2019-03-15T02:27:41.621Z,12.70
2019-03-15T02:30:11.276Z,15.63
2019-03-15T02:32:40.459Z,12.43
2019-03-15T02:35:09.990Z,11.40
2019-03-15T02:37:39.143Z,15.20
2019-03-15T02:40:08.604Z,14.73
2019-03-15T02:42:37.774Z,18.33
2019-03-15T02:45:07.184Z,15.43
2019-03-15T02:47:36.731Z,12.77
2019-03-15T02:50:06.127Z,11.20
2019-03-15T02:52:35.317Z,13.90
2019-03-15T02:55:04.609Z,14.00
2019-03-15T02:57:35.466Z,18.73
2019-03-15T03:00:05.701Z,13.77
2019-03-15T03:02:35.221Z,12.43
2019-03-15T03:05:04.532Z,14.87
2019-03-15T03:07:34.484Z,11.97
2019-03-15T03:10:04.022Z,13.80
2019-03-15T03:12:34.626Z,11.50
2019-03-15T03:15:04.130Z,15.47
2019-03-15T03:17:33.315Z,12.63
2019-03-15T03:20:02.481Z,12.70
2019-03-15T03:22:31.657Z,12.57
2019-03-15T03:25:01.185Z,11.57
2019-03-15T03:27:30.990Z,12.97
2019-03-15T03:30:00.589Z,13.50
2019-03-15T03:32:30.066Z,14.33
2019-03-15T03:35:00.082Z,14.70
2019-03-15T03:37:29.255Z,10.83
2019-03-15T03:39:58.790Z,13.40
2019-03-15T03:42:28.288Z,11.43
2019-03-15T03:44:57.440Z,11.93
2019-03-15T03:47:26.909Z,15.13
2019-03-15T03:49:56.050Z,13.13
2019-03-15T03:52:25.519Z,11.60
2019-03-15T03:54:55.020Z,14.63
2019-03-15T03:57:24.219Z,14.20
2019-03-15T03:59:53.654Z,15.20
2019-03-15T04:02:22.936Z,11.07
2019-03-15T04:04:52.082Z,14.13
2019-03-15T04:07:21.646Z,13.43
2019-03-15T04:09:51.331Z,10.43
2019-03-15T04:12:21.336Z,11.40
2019-03-15T04:14:51.666Z,13.77
2019-03-15T04:17:20.862Z,11.03
2019-03-15T04:19:50.548Z,12.47
2019-03-15T04:22:19.894Z,10.20
2019-03-15T04:24:49.042Z,9.77
2019-03-15T04:27:20.390Z,11.20
2019-03-15T04:29:49.555Z,11.13
2019-03-15T04:32:18.754Z,12.87
2019-03-15T04:34:47.906Z,16.37
2019-03-15T04:37:17.178Z,9.50
2019-03-15T04:39:46.613Z,13.10
2019-03-15T04:42:16.566Z,11.70
2019-03-15T04:44:45.756Z,8.83
2019-03-15T04:47:14.952Z,13.80
2019-03-15T04:49:44.502Z,10.37
2019-03-15T04:52:13.654Z,8.13
2019-03-15T04:54:42.847Z,7.07
2019-03-15T04:57:12.026Z,11.83
2019-03-15T04:59:41.495Z,9.10
2019-03-15T05:02:10.664Z,10.13
2019-03-15T05:04:40.441Z,11.53
2019-03-15T05:07:09.623Z,11.60
2019-03-15T05:09:38.803Z,9.97
2019-03-15T05:12:07.955Z,12.67
2019-03-15T05:14:37.141Z,11.07
2019-03-15T05:17:06.372Z,9.53
2019-03-15T05:19:36.356Z,9.17
2019-03-15T05:22:05.628Z,11.60
2019-03-15T05:24:34.811Z,14.30
2019-03-15T05:27:04.103Z,10.70
2019-03-15T05:29:33.788Z,10.17
2019-03-15T05:32:03.243Z,16.10
2019-03-15T05:34:32.418Z,14.07
2019-03-15T05:37:01.596Z,10.60
2019-03-15T05:39:30.821Z,7.30
2019-03-15T05:41:59.970Z,11.13
2019-03-15T05:44:29.500Z,9.30
2019-03-15T05:46:58.699Z,8.10
2019-03-15T05:49:28.656Z,9.40
2019-03-15T05:51:58.158Z,12.30
2019-03-15T05:54:27.354Z,8.40
2019-03-15T05:56:56.516Z,10.43
2019-03-15T05:59:26.239Z,12.53
2019-03-15T06:01:55.439Z,8.00
2019-03-15T06:04:24.618Z,11.73
2019-03-15T06:06:54.078Z,13.70
2019-03-15T06:09:23.223Z,7.70
2019-03-15T06:11:52.763Z,12.20
2019-03-15T06:14:21.929Z,8.33
2019-03-15T06:16:51.981Z,13.53
2019-03-15T06:19:21.309Z,13.33
2019-03-15T06:21:50.858Z,13.13
2019-03-15T06:24:20.619Z,12.83
2019-03-15T06:26:51.497Z,12.47
2019-03-15T06:29:21.825Z,11.03
2019-03-15T06:31:50.994Z,9.87
2019-03-15T06:34:20.413Z,12.23
2019-03-15T06:36:49.987Z,12.17
2019-03-15T06:39:19.188Z,14.70
2019-03-15T06:41:48.367Z,11.53
2019-03-15T06:44:23.032Z,13.80
2019-03-15T06:46:52.297Z,8.53
2019-03-15T06:49:21.500Z,10.30
2019-03-15T06:51:51.098Z,12.33
2019-03-15T06:54:23.249Z,10.83
2019-03-15T06:56:52.488Z,10.03
2019-03-15T06:59:21.653Z,10.30
2019-03-15T07:01:50.933Z,10.17
2019-03-15T07:04:22.651Z,14.10
2019-03-15T07:06:51.836Z,15.03
2019-03-15T07:09:21.028Z,10.63
2019-03-15T07:11:50.475Z,13.50
2019-03-15T07:14:19.676Z,13.13
2019-03-15T07:16:49.437Z,14.70
2019-03-15T07:19:27.361Z,9.83
2019-03-15T07:21:49.912Z,15.67
2019-03-15T07:24:25.458Z,10.80
2019-03-15T07:26:51.651Z,10.87
2019-03-15T07:29:23.165Z,12.87
2019-03-15T07:31:52.356Z,13.17
2019-03-15T07:34:21.676Z,7.73
2019-03-15T07:36:51.597Z,10.10
2019-03-15T07:39:21.205Z,16.67
2019-03-15T07:41:50.392Z,14.30
2019-03-15T07:44:20.064Z,11.97
2019-03-15T07:46:51.047Z,17.50
2019-03-15T07:49:20.756Z,14.60
2019-03-15T07:51:50.828Z,13.20
2019-03-15T07:54:20.051Z,9.97
2019-03-15T07:56:49.543Z,8.97
2019-03-15T07:59:22.796Z,15.43
2019-03-15T08:01:52.979Z,10.43
2019-03-15T08:04:22.641Z,10.87
2019-03-15T08:06:52.675Z,14.77
2019-03-15T08:09:22.804Z,12.03
2019-03-15T08:11:53.611Z,11.17
2019-03-15T08:14:22.842Z,14.23
2019-03-15T08:16:52.316Z,6.20
2019-03-15T08:19:22.317Z,12.03
2019-03-15T08:21:52.297Z,12.53
2019-03-15T08:24:21.774Z,11.90
2019-03-15T08:26:50.946Z,7.10
2019-03-15T08:29:21.370Z,13.47
2019-03-15T08:31:52.429Z,14.93
2019-03-15T08:34:21.921Z,15.27
2019-03-15T08:36:56.806Z,13.27
2019-03-15T08:39:26.357Z,10.03
2019-03-15T08:41:55.912Z,11.33
2019-03-15T08:44:27.803Z,8.83
2019-03-15T08:46:57.341Z,11.00
2019-03-15T08:49:26.563Z,9.43
2019-03-15T08:52:03.670Z,11.80
2019-03-15T08:54:29.751Z,13.33
2019-03-15T08:56:58.930Z,11.93
2019-03-15T08:59:29.610Z,11.93
2019-03-15T09:01:58.781Z,7.43
2019-03-15T09:04:29.112Z,11.00
2019-03-15T09:06:58.333Z,13.03
2019-03-15T09:09:32.238Z,12.23
2019-03-15T09:12:02.999Z,14.17
2019-03-15T09:14:33.376Z,9.93
2019-03-15T09:17:02.894Z,13.27
2019-03-15T09:19:32.059Z,10.43
2019-03-15T09:22:01.605Z,14.00
2019-03-15T09:24:31.968Z,10.10
2019-03-15T09:27:01.158Z,15.03
2019-03-15T09:29:30.782Z,14.07
2019-03-15T09:32:20.571Z,15.33
2019-03-15T09:34:50.049Z,12.03
2019-03-15T09:37:19.274Z,15.63
2019-03-15T09:39:48.460Z,15.60
2019-03-15T09:42:18.150Z,21.83
2019-03-15T09:44:47.575Z,13.03
2019-03-15T09:47:16.795Z,13.93
2019-03-15T09:49:46.631Z,13.53
2019-03-15T09:52:15.928Z,13.87
2019-03-15T09:54:45.431Z,8.57
2019-03-15T09:57:18.349Z,9.83
2019-03-15T09:59:47.645Z,8.23
2019-03-15T10:02:29.344Z,11.23
2019-03-15T10:04:47.835Z,11.87
2019-03-15T10:07:18.154Z,11.53
2019-03-15T10:09:48.259Z,7.73
2019-03-15T10:12:17.463Z,8.33
2019-03-15T10:14:46.645Z,10.00
2019-03-15T10:17:16.170Z,8.97
2019-03-15T10:19:47.475Z,10.60
2019-03-15T10:22:19.952Z,9.33
2019-03-15T10:24:49.182Z,8.93
2019-03-15T10:27:18.485Z,7.97
2019-03-15T10:29:47.701Z,8.13
2019-03-15T10:32:17.448Z,8.70
2019-03-15T10:34:47.124Z,6.90
2019-03-15T10:37:18.594Z,5.43
2019-03-15T10:39:47.886Z,6.93
2019-03-15T10:42:17.316Z,8.20
2019-03-15T10:44:48.138Z,7.63
2019-03-15T10:47:18.187Z,5.37
2019-03-15T10:49:47.984Z,7.97
2019-03-15T10:52:17.136Z,8.40
2019-03-15T10:54:46.662Z,7.30
2019-03-15T10:57:18.107Z,8.87
2019-03-15T10:59:47.292Z,7.23
2019-03-15T11:02:19.277Z,6.30
2019-03-15T11:04:48.479Z,5.73
2019-03-15T11:07:17.652Z,4.70
2019-03-15T11:09:47.089Z,1.80
2019-03-15T11:12:17.603Z,3.30
2019-03-15T11:14:47.612Z,2.60
2019-03-15T11:17:17.054Z,2.30
2019-03-15T11:19:46.576Z,2.80
2019-03-15T11:22:20.012Z,1.07
2019-03-15T11:24:49.510Z,1.10
2019-03-15T11:27:19.073Z,0.80
2019-03-15T11:29:48.577Z,1.00
2019-03-15T11:32:18.372Z,1.17
2019-03-15T11:34:47.559Z,0.63
2019-03-15T11:37:17.100Z,1.37
2019-03-15T11:39:47.441Z,1.63
2019-03-15T11:42:16.944Z,1.90
2019-03-15T11:44:46.918Z,1.30
2019-03-15T11:47:16.856Z,2.60
2019-03-15T11:49:48.071Z,1.30
2019-03-15T11:52:18.659Z,0.67
2019-03-15T11:54:49.803Z,3.70
2019-03-15T11:57:26.304Z,1.97
2019-03-15T11:59:56.068Z,1.90
2019-03-15T12:02:25.835Z,0.70
2019-03-15T12:04:55.513Z,0.60
2019-03-15T12:07:25.760Z,0.70
2019-03-15T12:10:00.437Z,0.70
2019-03-15T12:12:29.594Z,0.80
2019-03-15T12:15:00.307Z,0.70
2019-03-15T12:17:33.378Z,1.13
2019-03-15T12:20:03.233Z,1.33
2019-03-15T12:22:33.276Z,1.10
2019-03-15T12:25:06.513Z,1.60
2019-03-15T12:27:39.998Z,1.20
2019-03-15T12:30:13.863Z,0.80
2019-03-15T12:32:45.543Z,0.50
2019-03-15T12:35:16.597Z,0.70
2019-03-15T12:37:57.060Z,0.77
2019-03-15T12:40:28.658Z,2.30
2019-03-15T12:43:01.208Z,0.40
2019-03-15T12:45:31.869Z,0.60
2019-03-15T12:48:04.454Z,0.80
2019-03-15T12:50:33.791Z,1.07
2019-03-15T12:53:04.143Z,0.73
2019-03-15T12:55:34.891Z,0.70
2019-03-15T12:58:04.112Z,1.30
2019-03-15T13:00:35.068Z,0.80
2019-03-15T13:03:05.206Z,1.03
2019-03-15T13:05:34.995Z,0.40
2019-03-15T13:08:08.359Z,0.40
2019-03-15T13:10:37.612Z,0.50
2019-03-15T13:13:07.425Z,0.80
2019-03-15T13:15:39.514Z,0.97
2019-03-15T13:18:16.961Z,0.30
2019-03-15T13:20:52.595Z,0.40
2019-03-15T13:23:23.790Z,0.30
2019-03-15T13:25:54.725Z,1.80
2019-03-15T13:28:25.817Z,0.37
2019-03-15T13:30:55.890Z,2.10
2019-03-15T13:33:26.220Z,1.17
2019-03-15T13:35:55.793Z,1.33
2019-03-15T13:38:25.277Z,1.27
2019-03-15T13:40:55.627Z,0.50
2019-03-15T13:43:25.416Z,1.13
2019-03-15T13:45:57.770Z,0.60
2019-03-15T13:48:31.251Z,1.43
2019-03-15T13:51:00.687Z,1.13
2019-03-15T13:53:31.430Z,0.53
2019-03-15T13:56:00.691Z,0.57
2019-03-15T13:58:29.899Z,1.33
2019-03-15T14:00:59.923Z,1.17
2019-03-15T14:03:34.473Z,2.30
2019-03-15T14:06:04.982Z,4.77
2019-03-15T14:08:35.256Z,0.93
2019-03-15T14:11:04.962Z,1.07
2019-03-15T14:13:41.144Z,1.23
2019-03-15T14:16:13.776Z,2.80
2019-03-15T14:18:43.547Z,2.67
2019-03-15T14:21:13.208Z,2.40
2019-03-15T14:23:42.699Z,1.03
2019-03-15T14:26:12.382Z,1.13
2019-03-15T14:28:43.202Z,2.50
2019-03-15T14:31:13.623Z,0.90
2019-03-15T14:33:43.336Z,0.97
2019-03-15T14:36:13.880Z,1.40
2019-03-15T14:38:43.556Z,2.10
2019-03-15T14:41:15.534Z,0.60
2019-03-15T14:43:45.639Z,0.90
2019-03-15T14:46:14.882Z,1.13
2019-03-15T14:48:44.509Z,3.00
2019-03-15T14:51:14.781Z,1.03
2019-03-15T14:53:44.299Z,1.07
2019-03-15T14:56:13.499Z,0.77
2019-03-15T14:58:44.067Z,0.70
2019-03-15T15:01:13.293Z,2.17
2019-03-15T15:03:43.786Z,0.93
2019-03-15T15:06:14.062Z,1.87
2019-03-15T15:08:43.604Z,1.07
2019-03-15T15:11:13.660Z,1.63
2019-03-15T15:13:43.165Z,0.90
2019-03-15T15:16:12.394Z,0.50
2019-03-15T15:18:42.482Z,2.20
2019-03-15T15:21:13.563Z,1.30
2019-03-15T15:23:43.619Z,2.93
2019-03-15T15:26:13.513Z,2.10
2019-03-15T15:28:45.434Z,1.90
2019-03-15T15:31:15.394Z,2.27
2019-03-15T15:33:45.903Z,1.00
2019-03-15T15:36:15.843Z,1.27
2019-03-15T15:38:45.320Z,1.63
2019-03-15T15:41:15.907Z,3.73
2019-03-15T15:43:45.086Z,1.30
2019-03-15T15:46:17.244Z,2.50
2019-03-15T15:48:46.456Z,2.40
2019-03-15T15:51:15.665Z,1.13
2019-03-15T15:53:45.375Z,0.97
2019-03-15T15:56:14.622Z,0.70
2019-03-15T15:58:44.059Z,0.87
2019-03-15T16:01:14.552Z,1.03
2019-03-15T16:03:44.748Z,1.00
2019-03-15T16:06:15.928Z,0.90
2019-03-15T16:08:46.191Z,0.80
2019-03-15T16:11:15.677Z,1.87
2019-03-15T16:13:45.370Z,1.07
2019-03-15T16:16:16.405Z,2.10
2019-03-15T16:18:47.656Z,1.73
2019-03-15T16:21:16.860Z,2.37
2019-03-15T16:23:49.428Z,0.80
2019-03-15T16:26:18.660Z,0.70
2019-03-15T16:28:48.631Z,1.27
2019-03-15T16:31:18.649Z,0.60
2019-03-15T16:33:48.814Z,0.90
2019-03-15T16:36:18.048Z,1.77
2019-03-15T16:38:49.827Z,1.13
2019-03-15T16:41:19.040Z,1.00
2019-03-15T16:43:48.845Z,2.07
2019-03-15T16:46:18.058Z,1.63
2019-03-15T16:48:47.251Z,0.60
2019-03-15T16:51:19.898Z,0.90
2019-03-15T16:53:51.210Z,0.70
2019-03-15T16:56:20.470Z,0.60
2019-03-15T16:58:50.727Z,0.83
2019-03-15T17:01:20.470Z,0.50
2019-03-15T17:03:49.948Z,2.53
2019-03-15T17:06:19.855Z,0.40
2019-03-15T17:08:50.374Z,1.70
2019-03-15T17:11:20.257Z,0.43
2019-03-15T17:13:51.584Z,0.63
2019-03-15T17:16:21.040Z,1.13
2019-03-15T17:18:50.269Z,2.10
2019-03-15T17:21:19.714Z,0.80
2019-03-15T17:23:49.178Z,0.70
2019-03-15T17:26:18.632Z,1.57
2019-03-15T17:28:58.006Z,1.27
2019-03-15T17:31:18.725Z,0.60
2019-03-15T17:33:47.920Z,0.90
2019-03-15T17:36:18.645Z,3.30
2019-03-15T17:38:49.316Z,0.67
2019-03-15T17:41:18.483Z,1.13
2019-03-15T17:43:47.943Z,2.10
2019-03-15T17:46:17.642Z,0.60
2019-03-15T17:48:47.126Z,0.47
2019-03-15T17:51:16.584Z,1.33
2019-03-15T17:53:45.796Z,1.23
2019-03-15T17:56:15.327Z,1.43
2019-03-15T17:58:44.543Z,2.30
2019-03-15T18:01:13.979Z,2.17
2019-03-15T18:03:47.352Z,0.97
2019-03-15T18:06:17.790Z,0.77
2019-03-15T18:08:50.683Z,0.80
2019-03-15T18:11:21.455Z,0.40
2019-03-15T18:13:52.740Z,1.30
2019-03-15T18:16:23.352Z,0.33
2019-03-15T18:18:57.538Z,0.30
2019-03-15T18:21:28.492Z,1.33
2019-03-15T18:23:59.345Z,3.83
2019-03-15T18:26:29.551Z,1.43
2019-03-15T18:28:59.005Z,2.17
2019-03-15T18:31:28.978Z,1.97
2019-03-15T18:33:59.365Z,2.67
2019-03-15T18:36:28.548Z,8.93
2019-03-15T18:39:01.103Z,0.80
2019-03-15T18:41:31.564Z,0.50
2019-03-15T18:44:02.159Z,2.63
2019-03-15T18:46:31.537Z,1.33
2019-03-15T18:49:02.092Z,0.50
2019-03-15T18:51:32.856Z,0.60
2019-03-15T18:54:02.701Z,2.43
2019-03-15T18:56:32.507Z,0.97
2019-03-15T18:59:02.619Z,0.60
2019-03-15T19:01:34.399Z,0.70
2019-03-15T19:04:03.864Z,0.43
2019-03-15T19:06:33.444Z,3.13
2019-03-15T19:09:03.651Z,0.83
2019-03-15T19:11:34.767Z,1.17
2019-03-15T19:14:04.126Z,0.50
2019-03-15T19:16:34.729Z,0.50
2019-03-15T19:19:05.267Z,0.90
2019-03-15T19:21:34.817Z,1.73
2019-03-15T19:24:06.648Z,0.77
2019-03-15T19:26:36.193Z,0.63
2019-03-15T19:29:05.602Z,1.10
2019-03-15T19:31:35.123Z,5.10
2019-03-15T19:34:04.293Z,2.80
2019-03-15T19:36:34.246Z,4.77
2019-03-15T19:39:04.268Z,1.40
2019-03-15T19:41:34.063Z,0.50
2019-03-15T19:44:03.573Z,1.63
2019-03-15T19:46:33.476Z,1.30
2019-03-15T19:49:04.516Z,0.70
2019-03-15T19:51:35.658Z,0.50
2019-03-15T19:54:05.753Z,0.73
2019-03-15T19:56:35.927Z,0.80
2019-03-15T19:59:07.487Z,1.13
2019-03-15T20:01:36.985Z,0.90
2019-03-15T20:04:06.288Z,0.70
2019-03-15T20:06:36.488Z,1.43
2019-03-15T20:09:08.758Z,2.43
2019-03-15T20:11:38.061Z,1.37
2019-03-15T20:14:07.660Z,0.50
2019-03-15T20:16:36.864Z,1.03
2019-03-15T20:19:06.105Z,1.07
2019-03-15T20:21:35.790Z,0.67
2019-03-15T20:24:05.589Z,1.00
2019-03-15T20:26:36.699Z,0.80
2019-03-15T20:29:05.909Z,0.47
2019-03-15T20:31:35.110Z,0.67
2019-03-15T20:34:04.488Z,0.57
2019-03-15T20:36:33.661Z,1.47
2019-03-15T20:39:03.097Z,0.67
2019-03-15T20:41:32.282Z,0.73
2019-03-15T20:44:01.503Z,0.70
2019-03-15T20:46:36.107Z,0.70
2019-03-15T20:49:06.106Z,1.27
2019-03-15T20:51:35.378Z,0.37
2019-03-15T20:54:04.676Z,2.03
2019-03-15T20:56:34.495Z,0.33
2019-03-15T20:59:03.771Z,0.40
2019-03-15T21:01:32.941Z,1.03
2019-03-15T21:04:02.837Z,0.70
2019-03-15T21:06:33.007Z,0.80
2019-03-15T21:09:02.670Z,1.43
2019-03-15T21:11:32.470Z,0.50
2019-03-15T21:14:01.701Z,1.10
2019-03-15T21:16:30.937Z,1.90
2019-03-15T21:19:00.590Z,0.63
2019-03-15T21:21:32.270Z,2.03
2019-03-15T21:24:01.791Z,3.17
2019-03-15T21:26:31.666Z,0.87
2019-03-15T21:29:01.522Z,1.70
2019-03-15T21:31:32.424Z,0.70
2019-03-15T21:34:01.614Z,1.17
2019-03-15T21:36:32.150Z,0.80
2019-03-15T21:39:02.218Z,0.80
2019-03-15T21:41:32.273Z,1.20
2019-03-15T21:44:01.482Z,0.80
2019-03-15T21:46:30.977Z,0.80
2019-03-15T21:49:00.190Z,0.83
2019-03-15T21:51:29.832Z,1.27
2019-03-15T21:53:59.404Z,0.60
2019-03-15T21:56:28.604Z,0.63
2019-03-15T21:58:57.815Z,1.03
2019-03-15T22:01:27.892Z,5.27
2019-03-15T22:03:57.116Z,0.97
2019-03-15T22:06:28.430Z,2.23
2019-03-15T22:08:57.986Z,1.73
2019-03-15T22:11:27.790Z,1.23
2019-03-15T22:13:57.505Z,1.17
2019-03-15T22:16:27.577Z,3.07
2019-03-15T22:18:57.166Z,2.37
2019-03-15T22:21:26.942Z,6.83
2019-03-15T22:23:56.388Z,2.97
2019-03-15T22:26:26.059Z,4.77
2019-03-15T22:28:55.635Z,6.83
2019-03-15T22:31:25.938Z,5.50
2019-03-15T22:34:04.547Z,10.73
2019-03-15T22:36:33.802Z,6.63
2019-03-15T22:39:04.620Z,7.70
2019-03-15T22:41:35.883Z,4.77
2019-03-15T22:44:05.199Z,7.70
2019-03-15T22:46:35.254Z,5.67
2019-03-15T22:49:07.281Z,5.63
2019-03-15T22:51:36.846Z,6.10
2019-03-15T22:54:06.575Z,5.23
2019-03-15T22:56:35.855Z,5.40
2019-03-15T22:59:06.145Z,5.93
2019-03-15T23:01:35.340Z,9.77
2019-03-15T23:04:04.509Z,4.93
2019-03-15T23:06:33.698Z,6.00
2019-03-15T23:09:03.334Z,8.97
2019-03-15T23:11:33.845Z,5.53
2019-03-15T23:14:03.247Z,6.40
2019-03-15T23:16:33.149Z,5.67
2019-03-15T23:19:02.309Z,11.53
2019-03-15T23:21:32.044Z,12.03
2019-03-15T23:24:01.197Z,8.27
2019-03-15T23:26:30.648Z,6.57
2019-03-15T23:28:59.828Z,3.53
2019-03-15T23:31:29.021Z,8.87
2019-03-15T23:33:58.734Z,7.27
2019-03-15T23:36:28.693Z,6.37
2019-03-15T23:38:59.642Z,6.90
2019-03-15T23:41:29.162Z,7.13
2019-03-15T23:43:58.784Z,7.57
2019-03-15T23:46:27.927Z,6.60
2019-03-15T23:48:58.062Z,9.27
2019-03-15T23:51:27.246Z,9.20
2019-03-15T23:53:57.207Z,6.57
2019-03-15T23:56:26.720Z,11.43
2019-03-15T23:58:56.495Z,9.57
